Погода Сиуцеона неделю

Халиско, Мексика

24 февраля-01 марта
  • 24февраля
    Сегодня
    +10°
    +30°
    Ясно и безоблачно
    ВремяПогодаТемператураВлажностьДавлениеВетер, м/сВероятность осадков
    00:00Ясно и безоблачно+15°C55 %636 мм1.2 м/с2 %
    03:00Ясно и безоблачно+10°C61 %635 мм2.1 м/с2 %
    06:00Ясно и безоблачно+10°C58 %636 мм1.7 м/с2 %
    09:00Ясно и безоблачно+14°C58 %639 мм1.7 м/с2 %
    12:00Ясно и безоблачно+24°C38 %642 мм0.5 м/с2 %
    15:00Ясно и безоблачно+29°C24 %640 мм2.1 м/с2 %
    18:00Практически безоблачно+28°C36 %639 мм2.2 м/с2 %
    21:00Облачно с прояснениями+21°C65 %638 мм2.4 м/с2 %
  • 25февраля
    Воскресенье
    +10°
    +30°
    Ясно и безоблачно
    ВремяПогодаТемператураВлажностьДавлениеВетер, м/сВероятность осадков
    00:00Ясно и безоблачно+17°C78 %639 мм0.1 м/с2 %
    03:00Небольшая облачность+12°C76 %637 мм1.4 м/с2 %
    06:00Небольшая облачность+11°C78 %637 мм1.0 м/с2 %
    09:00Ясно и безоблачно+15°C59 %640 мм0.6 м/с2 %
    12:00Практически безоблачно+25°C35 %642 мм1.3 м/с2 %
    15:00Ясно и безоблачно+29°C25 %640 мм2.7 м/с2 %
    18:00Ясно и безоблачно+29°C26 %639 мм2.6 м/с2 %
    21:00Ясно и безоблачно+21°C53 %638 мм2.3 м/с2 %
  • 26февраля
    Понедельник
    +10°
    +31°
    Ясно и безоблачно
    ВремяПогодаТемператураВлажностьДавлениеВетер, м/сВероятность осадков
    00:00Ясно и безоблачно+17°C60 %639 мм1.2 м/с2 %
    03:00Ясно и безоблачно+13°C65 %637 мм1.5 м/с2 %
    06:00Ясно и безоблачно+12°C75 %637 мм1.3 м/с2 %
    09:00Ясно и безоблачно+15°C58 %640 мм0.8 м/с2 %
    12:00Ясно и безоблачно+25°C37 %642 мм1.8 м/с2 %
    15:00Ясно и безоблачно+29°C27 %640 мм2.5 м/с2 %
    18:00Ясно и безоблачно+29°C28 %639 мм2.3 м/с2 %
    21:00Ясно и безоблачно+22°C63 %638 мм2.3 м/с2 %
  • 27февраля
    Вторник
    +10°
    +30°
    Ясно и безоблачно
    ВремяПогодаТемператураВлажностьДавлениеВетер, м/сВероятность осадков
    00:00Ясно и безоблачно+19°C74 %638 мм2.2 м/с2 %
    03:00Ясно и безоблачно+16°C70 %637 мм1.9 м/с2 %
    06:00Практически безоблачно+12°C85 %636 мм1.6 м/с2 %
    09:00Ясно и безоблачно+16°C65 %639 мм0.9 м/с2 %
    12:00Ясно и безоблачно+25°C35 %641 мм1.8 м/с2 %
    15:00Ясно и безоблачно+29°C25 %639 мм3.6 м/с2 %
    18:00Ясно и безоблачно+29°C28 %638 мм2.0 м/с2 %
    21:00Ясно и безоблачно+22°C47 %637 мм3.3 м/с2 %
  • 28февраля
    Среда
    +11°
    +30°
    Небольшая облачность
    ВремяПогодаТемператураВлажностьДавлениеВетер, м/сВероятность осадков
    00:00Ясно и безоблачно+18°C48 %637 мм2.7 м/с2 %
    03:00Ясно и безоблачно+15°C55 %636 мм1.7 м/с2 %
    06:00Ясно и безоблачно+11°C64 %635 мм1.4 м/с2 %
    09:00Ясно и безоблачно+15°C44 %638 мм0.8 м/с2 %
    12:00Небольшая облачность+25°C24 %640 мм1.6 м/с2 %
    15:00Небольшая облачность+29°C16 %639 мм2.9 м/с2 %
    18:00Небольшая облачность+28°C21 %638 мм2.6 м/с2 %
    21:00Практически безоблачно+22°C50 %638 мм2.8 м/с2 %
Мы используем cookies
Соглашаюсь